Hauptseite
METAR-TAF:

METAR-TAF

Flughäfen :

Flugplatz Oberpfaffenhofen

Oberpfaffenhofen, Deutschland

Breite: 48-05N, Länge: 011-17E, Höhe: 600 m

Beobachtung

Neuester Wetterbericht von vor 6 Stunden und 10 Minuten, um 17:50 UTC
Wind 6 kt aus Ost/Nordost
Temperatur -5°C
Luftfeuchtigkeit 93%
Luftdruck 1003 hPa
Sichtweite: 6000 m
Durchbrochene Bewölkung in der Höhe von 800 ft

METAR: EDMO 221750Z 07006KT 6000 BKN008 M05/M06 Q1003

Zeit: 01:00 (00:00 UTC)

Prognose

Neuester Wetterbericht von vor 7 Stunden und 0 Minuten, um 17:00 UTC
Gültige Prognose vom 22 um 18 UTC bis 23 um 03 UTC
Wind 5 kt aus Ost/Nordost
Sichtweite: 6000 m
Durchbrochene Bewölkung in der Höhe von 800 ft
Übergehend zu
vom 22 um 18 UTC bis 22 um 20 UTC
Sichtweite: 4000 m
feuchter Dunst

TAF: EDMO 221700Z 2218/2303 07005KT 6000 BKN008 BECMG 2218/2220 4000 BR

Wetterbeobachtungen und Prognosen von mehr als 4000 Flughäfen (METAR und TAF Bericht).

Die verfügbaren Stationen werden durch gelbe und rote Markierungen auf der Karte dargestellt.

Führen Sie die Maus auf sie, um den Namen der Station zu sehen.

Darauf klicken, um die Beobachtung von Wetterbeobachtungen und Prognosen zu sehen.

Um die Karte zu ändern : klicken Sie auf den grünen Tasten mit einem schwarzen Kreuz Zum Vergrößern, auf den grünen Button mit einem Gedankenstrich zu verkleinern, oder auf die grünen Pfeile für benachbarte Karten.


METAR-TAF: